createdAt,value
2022-10-09T00:00:25.708Z,7.90
2022-10-09T00:10:47.579Z,7.60
2022-10-09T00:21:19.483Z,7.60
2022-10-09T00:31:41.161Z,7.40
2022-10-09T00:42:04.989Z,7.20
2022-10-09T00:52:27.183Z,7.20
2022-10-09T01:02:50.326Z,7.30
2022-10-09T01:13:19.971Z,7.20
2022-10-09T01:24:00.311Z,7.30
2022-10-09T01:34:24.888Z,7.30
2022-10-09T01:44:46.198Z,7.20
2022-10-09T01:55:26.358Z,7.10
2022-10-09T02:05:50.289Z,7.10
2022-10-09T02:16:19.842Z,7.10
2022-10-09T02:26:42.138Z,7.20
2022-10-09T02:37:05.147Z,7.10
2022-10-09T02:47:26.734Z,6.90
2022-10-09T02:57:49.666Z,6.80
2022-10-09T03:08:10.969Z,6.80
2022-10-09T03:18:33.786Z,6.80
2022-10-09T03:28:56.911Z,6.40
2022-10-09T03:39:19.721Z,6.20
2022-10-09T03:49:40.904Z,6.30
2022-10-09T04:00:04.143Z,5.90
2022-10-09T04:10:25.986Z,5.90
2022-10-09T04:20:51.332Z,5.80
2022-10-09T04:31:12.993Z,5.70
2022-10-09T04:41:38.347Z,5.40
2022-10-09T04:52:00.317Z,5.40
2022-10-09T05:02:22.954Z,5.30
2022-10-09T05:12:44.137Z,5.40
2022-10-09T05:23:06.926Z,5.40
2022-10-09T05:33:29.508Z,5.20
2022-10-09T05:43:52.437Z,5.10
2022-10-09T05:54:16.388Z,5.70
2022-10-09T06:04:38.982Z,6.00
2022-10-09T06:15:00.470Z,6.60
2022-10-09T06:25:23.014Z,6.80
2022-10-09T06:35:44.683Z,7.20
2022-10-09T06:46:09.421Z,7.80
2022-10-09T06:56:32.731Z,8.40
2022-10-09T07:06:55.755Z,8.80
2022-10-09T07:17:17.088Z,8.80
2022-10-09T07:27:39.827Z,9.00
2022-10-09T07:38:01.023Z,10.20
2022-10-09T07:48:23.743Z,10.90
2022-10-09T07:58:49.659Z,11.10
2022-10-09T08:09:12.501Z,11.10
2022-10-09T08:19:34.014Z,12.00
2022-10-09T08:29:57.534Z,12.70
2022-10-09T08:40:23.059Z,13.30
2022-10-09T08:50:49.653Z,13.80
2022-10-09T09:01:19.932Z,14.60
2022-10-09T09:11:49.580Z,14.60
2022-10-09T09:22:14.452Z,15.20
2022-10-09T09:32:40.834Z,14.60
2022-10-09T09:43:05.029Z,16.50
2022-10-09T09:53:36.592Z,16.10
2022-10-09T10:04:03.260Z,16.00
2022-10-09T10:14:27.384Z,16.40
2022-10-09T10:24:50.916Z,17.70
2022-10-09T10:35:17.948Z,17.10
2022-10-09T10:45:55.507Z,17.40
2022-10-09T10:56:27.160Z,18.40
2022-10-09T11:06:57.942Z,18.70
2022-10-09T11:17:30.586Z,17.20
2022-10-09T11:27:57.266Z,17.40
2022-10-09T11:38:34.605Z,18.40
2022-10-09T11:49:10.039Z,18.40
2022-10-09T11:59:36.577Z,18.50
2022-10-09T12:10:07.668Z,18.00
2022-10-09T12:20:33.479Z,19.50
2022-10-09T12:31:01.665Z,18.80
2022-10-09T12:41:30.958Z,18.40
2022-10-09T12:51:56.109Z,19.40
2022-10-09T13:02:20.973Z,19.00
2022-10-09T13:12:50.583Z,19.10
2022-10-09T13:23:30.023Z,19.40
2022-10-09T13:33:51.436Z,18.10
2022-10-09T13:44:14.328Z,18.60
2022-10-09T13:54:35.562Z,18.50
2022-10-09T14:04:58.318Z,18.40
2022-10-09T14:15:20.044Z,18.50
2022-10-09T14:25:43.138Z,18.70
2022-10-09T14:36:08.809Z,18.20
2022-10-09T14:46:33.890Z,18.00
2022-10-09T14:56:55.467Z,18.10
2022-10-09T15:07:18.174Z,17.90
2022-10-09T15:17:39.904Z,17.60
2022-10-09T15:28:03.286Z,17.30
2022-10-09T15:38:26.266Z,16.50
2022-10-09T15:48:50.199Z,16.20
2022-10-09T15:59:13.136Z,15.70
2022-10-09T16:09:37.319Z,15.00
2022-10-09T16:20:00.320Z,14.30
2022-10-09T16:30:22.920Z,13.70
2022-10-09T16:41:02.152Z,13.20
2022-10-09T16:51:27.210Z,12.90
2022-10-09T17:01:49.588Z,12.70
2022-10-09T17:12:13.004Z,12.40
2022-10-09T17:22:34.497Z,12.20
2022-10-09T17:32:57.297Z,12.00
2022-10-09T17:43:18.544Z,11.70
2022-10-09T17:53:41.449Z,11.30
2022-10-09T18:04:05.917Z,11.10
2022-10-09T18:14:28.664Z,11.00
2022-10-09T18:24:49.890Z,10.80
2022-10-09T18:35:15.130Z,10.60
2022-10-09T18:45:38.507Z,10.50
2022-10-09T18:56:01.593Z,10.40
2022-10-09T19:06:26.193Z,10.20
2022-10-09T19:16:48.994Z,10.00
2022-10-09T19:27:10.729Z,9.80
2022-10-09T19:37:33.708Z,9.90
2022-10-09T19:47:55.422Z,9.90
2022-10-09T19:58:18.647Z,10.00
2022-10-09T20:08:41.915Z,9.90
2022-10-09T20:19:05.335Z,9.90
2022-10-09T20:29:27.189Z,9.70
2022-10-09T20:39:49.802Z,9.60
2022-10-09T20:50:11.350Z,9.50
2022-10-09T21:00:34.836Z,9.50
2022-10-09T21:10:56.524Z,9.40
2022-10-09T21:21:20.109Z,9.30
2022-10-09T21:31:41.576Z,9.20
2022-10-09T21:42:04.150Z,9.00
2022-10-09T21:52:26.173Z,9.10
2022-10-09T22:02:49.205Z,8.80
2022-10-09T22:13:10.816Z,8.70
2022-10-09T22:23:36.907Z,8.50
2022-10-09T22:34:01.288Z,8.50
2022-10-09T22:44:24.256Z,8.40
2022-10-09T22:54:45.732Z,8.30
2022-10-09T23:05:08.990Z,8.30
2022-10-09T23:15:30.374Z,8.40
2022-10-09T23:25:52.912Z,8.50
2022-10-09T23:36:16.641Z,8.40
2022-10-09T23:46:39.837Z,8.30
2022-10-09T23:57:01.528Z,8.30
